createdAt,value
2019-06-10T00:00:42.104Z,19.06
2019-06-10T00:03:12.020Z,19.05
2019-06-10T00:05:41.797Z,19.04
2019-06-10T00:08:12.170Z,19.01
2019-06-10T00:10:42.100Z,18.69
2019-06-10T00:13:12.257Z,18.98
2019-06-10T00:15:41.590Z,18.97
2019-06-10T00:18:38.339Z,18.95
2019-06-10T00:20:41.553Z,18.92
2019-06-10T00:23:12.233Z,18.89
2019-06-10T00:25:41.969Z,18.87
2019-06-10T00:28:11.947Z,18.85
2019-06-10T00:30:41.751Z,18.83
2019-06-10T00:33:12.435Z,18.81
2019-06-10T00:35:41.681Z,18.76
2019-06-10T00:38:13.748Z,18.72
2019-06-10T00:40:42.042Z,18.70
2019-06-10T00:43:13.403Z,18.70
2019-06-10T00:45:42.143Z,18.70
2019-06-10T00:48:24.369Z,18.71
2019-06-10T00:50:42.139Z,18.70
2019-06-10T00:53:14.058Z,18.06
2019-06-10T00:55:42.495Z,18.71
2019-06-10T00:58:13.958Z,18.72
2019-06-10T01:00:42.951Z,18.71
2019-06-10T01:03:15.133Z,18.69
2019-06-10T01:05:43.108Z,18.67
2019-06-10T01:08:15.587Z,18.64
2019-06-10T01:10:44.164Z,18.63
2019-06-10T01:13:15.408Z,18.62
2019-06-10T01:15:44.419Z,18.63
2019-06-10T01:18:33.695Z,18.63
2019-06-10T01:20:44.372Z,18.58
2019-06-10T01:23:15.660Z,18.56
2019-06-10T01:25:44.391Z,18.55
2019-06-10T01:28:16.830Z,18.53
2019-06-10T01:30:44.353Z,18.50
2019-06-10T01:33:14.853Z,18.48
2019-06-10T01:35:44.362Z,18.47
2019-06-10T01:38:16.262Z,18.48
2019-06-10T01:40:51.667Z,18.47
2019-06-10T01:43:21.460Z,18.45
2019-06-10T01:45:51.211Z,18.41
2019-06-10T01:48:20.971Z,18.37
2019-06-10T01:50:51.290Z,18.33
2019-06-10T01:53:22.099Z,18.29
2019-06-10T01:55:52.006Z,18.26
2019-06-10T01:58:23.607Z,18.23
2019-06-10T02:01:23.540Z,18.22
2019-06-10T02:03:52.645Z,18.19
2019-06-10T02:06:25.456Z,18.18
2019-06-10T02:08:55.209Z,18.14
2019-06-10T02:11:24.332Z,18.11
2019-06-10T02:13:53.449Z,18.08
2019-06-10T02:16:23.982Z,18.05
2019-06-10T02:19:00.155Z,18.02
2019-06-10T02:21:24.567Z,18.02
2019-06-10T02:23:53.719Z,18.00
2019-06-10T02:26:23.723Z,17.98
2019-06-10T02:28:52.884Z,17.96
2019-06-10T02:31:30.259Z,17.94
2019-06-10T02:33:52.838Z,17.94
2019-06-10T02:36:30.892Z,17.93
2019-06-10T02:38:54.013Z,17.92
2019-06-10T02:41:31.275Z,17.93
2019-06-10T02:43:54.243Z,17.90
2019-06-10T02:46:30.797Z,17.86
2019-06-10T02:48:54.619Z,16.46
2019-06-10T02:51:30.615Z,17.82
2019-06-10T02:53:54.842Z,17.77
2019-06-10T02:56:29.903Z,17.75
2019-06-10T02:58:55.392Z,17.74
2019-06-10T03:01:32.125Z,17.73
2019-06-10T03:03:55.391Z,17.73
2019-06-10T03:06:32.452Z,17.72
2019-06-10T03:08:55.596Z,17.69
2019-06-10T03:11:29.681Z,17.67
2019-06-10T03:13:55.593Z,17.64
2019-06-10T03:16:35.504Z,17.62
2019-06-10T03:19:04.633Z,17.58
2019-06-10T03:21:33.799Z,17.56
2019-06-10T03:24:02.960Z,17.55
2019-06-10T03:26:32.417Z,17.54
2019-06-10T03:29:02.689Z,17.51
2019-06-10T03:31:40.405Z,17.50
2019-06-10T03:34:04.995Z,17.50
2019-06-10T03:36:33.933Z,17.50
2019-06-10T03:39:03.643Z,17.52
2019-06-10T03:41:32.777Z,17.53
2019-06-10T03:44:02.546Z,17.54
2019-06-10T03:46:32.834Z,17.53
2019-06-10T03:49:03.178Z,17.53
2019-06-10T03:51:33.363Z,17.52
2019-06-10T03:54:02.682Z,17.52
2019-06-10T03:56:32.298Z,17.54
2019-06-10T03:59:02.790Z,17.55
2019-06-10T04:01:33.351Z,17.56
2019-06-10T04:04:02.750Z,17.56
2019-06-10T04:06:33.631Z,17.56
2019-06-10T04:09:02.965Z,17.57
2019-06-10T04:11:34.913Z,17.55
2019-06-10T04:14:02.956Z,17.52
2019-06-10T04:16:32.804Z,17.49
2019-06-10T04:19:02.719Z,17.46
2019-06-10T04:21:32.652Z,17.47
2019-06-10T04:24:02.349Z,17.49
2019-06-10T04:26:32.706Z,17.52
2019-06-10T04:29:02.593Z,17.55
2019-06-10T04:31:33.098Z,17.58
2019-06-10T04:34:03.146Z,17.60
2019-06-10T04:36:33.255Z,17.64
2019-06-10T04:39:03.344Z,17.69
2019-06-10T04:41:32.644Z,17.75
2019-06-10T04:44:02.657Z,17.82
2019-06-10T04:46:32.494Z,17.87
2019-06-10T04:49:02.720Z,17.93
2019-06-10T04:51:32.904Z,17.99
2019-06-10T04:54:03.034Z,18.05
2019-06-10T04:56:33.449Z,18.10
2019-06-10T04:59:03.263Z,18.15
2019-06-10T05:01:33.522Z,18.19
2019-06-10T05:04:03.307Z,18.21
2019-06-10T05:06:32.925Z,18.24
2019-06-10T05:09:04.169Z,18.25
2019-06-10T05:11:33.256Z,18.22
2019-06-10T05:14:02.871Z,18.19
2019-06-10T05:16:35.539Z,18.19
2019-06-10T05:19:03.845Z,18.20
2019-06-10T05:21:33.727Z,18.20
2019-06-10T05:24:03.074Z,18.19
2019-06-10T05:26:33.627Z,18.19
2019-06-10T05:29:03.337Z,18.19
2019-06-10T05:31:35.144Z,18.18
2019-06-10T05:34:03.477Z,18.17
2019-06-10T05:36:34.783Z,18.15
2019-06-10T05:39:04.708Z,18.12
2019-06-10T05:41:35.111Z,18.11
2019-06-10T05:44:04.445Z,18.09
2019-06-10T05:46:35.034Z,18.10
2019-06-10T05:49:04.260Z,18.11
2019-06-10T05:51:35.282Z,18.12
2019-06-10T05:54:04.323Z,18.12
2019-06-10T05:56:34.248Z,18.11
2019-06-10T05:59:04.476Z,18.09
2019-06-10T06:01:38.205Z,18.11
2019-06-10T06:04:04.557Z,18.15
2019-06-10T06:06:35.314Z,18.20
2019-06-10T06:09:06.373Z,18.29
2019-06-10T06:11:35.498Z,18.36
2019-06-10T06:14:04.730Z,18.43
2019-06-10T06:16:36.068Z,18.50
2019-06-10T06:19:04.760Z,18.59
2019-06-10T06:21:40.250Z,18.72
2019-06-10T06:24:05.175Z,18.84
2019-06-10T06:26:37.913Z,18.98
2019-06-10T06:29:05.424Z,19.12
2019-06-10T06:31:36.149Z,19.23
2019-06-10T06:34:05.772Z,19.30
2019-06-10T06:36:36.671Z,19.38
2019-06-10T06:39:12.893Z,19.48
2019-06-10T06:41:42.771Z,19.60
2019-06-10T06:44:12.948Z,19.74
2019-06-10T06:46:43.032Z,19.90
2019-06-10T06:49:12.976Z,19.99
2019-06-10T06:51:51.784Z,20.11
2019-06-10T06:54:13.051Z,20.22
2019-06-10T06:56:43.738Z,20.37
2019-06-10T06:59:13.449Z,20.47
2019-06-10T07:01:44.089Z,20.61
2019-06-10T07:04:13.883Z,20.77
2019-06-10T07:06:43.528Z,20.93
2019-06-10T07:09:13.471Z,21.09
2019-06-10T07:11:45.301Z,21.22
2019-06-10T07:14:14.807Z,21.33
2019-06-10T07:16:46.332Z,21.40
2019-06-10T07:19:14.893Z,21.47
2019-06-10T07:22:02.366Z,21.52
2019-06-10T07:24:14.933Z,21.49
2019-06-10T07:26:51.114Z,21.53
2019-06-10T07:29:14.981Z,21.52
2019-06-10T07:31:47.877Z,21.56
2019-06-10T07:34:15.353Z,21.45
2019-06-10T07:36:45.496Z,20.60
2019-06-10T07:39:15.327Z,21.47
2019-06-10T07:42:04.834Z,21.55
2019-06-10T07:44:34.912Z,21.72
2019-06-10T07:47:04.927Z,21.89
2019-06-10T07:49:35.328Z,21.98
2019-06-10T07:52:15.519Z,21.85
2019-06-10T07:54:37.502Z,22.16
2019-06-10T07:57:06.838Z,22.17
2019-06-10T07:59:35.941Z,22.26
2019-06-10T08:02:05.097Z,22.47
2019-06-10T08:04:35.246Z,22.55
2019-06-10T08:07:05.151Z,22.61
2019-06-10T08:09:35.785Z,22.75
2019-06-10T08:12:06.043Z,23.01
2019-06-10T08:14:35.448Z,23.19
2019-06-10T08:17:04.655Z,23.35
2019-06-10T08:19:37.807Z,23.42
2019-06-10T08:22:04.799Z,23.50
2019-06-10T08:24:35.323Z,23.57
2019-06-10T08:27:04.510Z,23.70
2019-06-10T08:29:33.660Z,23.73
2019-06-10T08:32:03.432Z,23.80
2019-06-10T08:34:33.083Z,23.93
2019-06-10T08:37:04.347Z,24.04
2019-06-10T08:39:33.612Z,24.23
2019-06-10T08:42:03.259Z,24.32
2019-06-10T08:44:32.853Z,24.37
2019-06-10T08:47:03.065Z,24.49
2019-06-10T08:49:32.807Z,24.56
2019-06-10T08:52:02.838Z,24.71
2019-06-10T08:54:32.514Z,24.79
2019-06-10T08:57:04.374Z,24.84
2019-06-10T08:59:33.224Z,24.96
2019-06-10T09:02:03.126Z,25.05
2019-06-10T09:04:33.080Z,25.12
2019-06-10T09:07:04.176Z,25.29
2019-06-10T09:09:33.684Z,25.42
2019-06-10T09:12:03.633Z,25.58
2019-06-10T09:14:32.980Z,25.81
2019-06-10T09:17:03.467Z,25.96
2019-06-10T09:19:33.309Z,26.11
2019-06-10T09:22:03.437Z,26.05
2019-06-10T09:24:33.121Z,25.92
2019-06-10T09:27:02.915Z,25.77
2019-06-10T09:29:32.876Z,25.65
2019-06-10T09:32:02.315Z,25.74
2019-06-10T09:34:33.067Z,25.69
2019-06-10T09:37:03.563Z,26.09
2019-06-10T09:39:33.354Z,26.21
2019-06-10T09:42:06.363Z,26.06
2019-06-10T09:44:34.108Z,26.06
2019-06-10T09:47:04.815Z,26.17
2019-06-10T09:49:34.036Z,26.17
2019-06-10T09:52:03.600Z,26.28
2019-06-10T09:54:33.570Z,26.42
2019-06-10T09:57:03.400Z,26.50
2019-06-10T09:59:56.140Z,26.51
2019-06-10T10:02:22.508Z,26.63
2019-06-10T10:04:57.712Z,26.90
2019-06-10T10:07:22.762Z,27.08
2019-06-10T10:09:57.243Z,27.20
2019-06-10T10:12:24.487Z,27.15
2019-06-10T10:14:56.210Z,26.92
2019-06-10T10:17:24.459Z,26.86
2019-06-10T10:19:56.728Z,26.97
2019-06-10T10:22:24.434Z,27.05
2019-06-10T10:24:56.466Z,27.00
2019-06-10T10:27:24.402Z,27.03
2019-06-10T10:29:56.961Z,27.00
2019-06-10T10:32:24.450Z,27.09
2019-06-10T10:34:56.409Z,26.98
2019-06-10T10:37:24.385Z,27.07
2019-06-10T10:39:56.286Z,27.20
2019-06-10T10:42:24.382Z,27.09
2019-06-10T10:44:58.604Z,27.16
2019-06-10T10:47:27.505Z,27.20
2019-06-10T10:49:56.795Z,27.29
2019-06-10T10:52:26.553Z,27.30
2019-06-10T10:54:55.937Z,27.33
2019-06-10T10:57:24.988Z,27.40
2019-06-10T10:59:56.165Z,27.57
2019-06-10T11:02:25.022Z,27.71
2019-06-10T11:04:56.842Z,27.68
2019-06-10T11:07:24.953Z,27.57
2019-06-10T11:09:56.686Z,27.69
2019-06-10T11:12:26.063Z,27.80
2019-06-10T11:15:00.432Z,27.76
2019-06-10T11:17:26.062Z,27.67
2019-06-10T11:19:55.940Z,27.44
2019-06-10T11:22:25.061Z,27.38
2019-06-10T11:24:56.177Z,27.35
2019-06-10T11:27:25.033Z,27.43
2019-06-10T11:29:57.385Z,27.54
2019-06-10T11:32:25.030Z,27.54
2019-06-10T11:34:56.957Z,27.41
2019-06-10T11:37:25.412Z,27.31
2019-06-10T11:39:55.043Z,27.18
2019-06-10T11:42:24.491Z,27.04
2019-06-10T11:44:55.406Z,27.03
2019-06-10T11:47:25.261Z,27.03
2019-06-10T11:49:55.352Z,27.08
2019-06-10T11:52:25.499Z,27.10
2019-06-10T11:55:05.554Z,27.14
2019-06-10T11:57:25.645Z,27.32
2019-06-10T11:59:55.974Z,27.43
2019-06-10T12:02:27.295Z,27.50
2019-06-10T12:04:58.888Z,27.58
2019-06-10T12:07:27.336Z,27.77
2019-06-10T12:09:59.084Z,27.88
2019-06-10T12:12:27.455Z,27.82
2019-06-10T12:14:59.535Z,27.82
2019-06-10T12:17:41.629Z,27.93
2019-06-10T12:20:01.417Z,28.02
2019-06-10T12:22:29.132Z,28.18
2019-06-10T12:25:26.381Z,28.23
2019-06-10T12:27:29.111Z,28.31
2019-06-10T12:29:59.923Z,28.36
2019-06-10T12:32:29.141Z,28.42
2019-06-10T12:34:59.668Z,28.49
2019-06-10T12:37:28.882Z,28.55
2019-06-10T12:39:59.538Z,28.36
2019-06-10T12:42:29.048Z,28.26
2019-06-10T12:44:59.362Z,28.23
2019-06-10T12:47:29.066Z,28.24
2019-06-10T12:49:59.135Z,28.18
2019-06-10T12:52:28.376Z,28.05
2019-06-10T12:54:57.604Z,27.99
2019-06-10T12:57:26.753Z,27.90
2019-06-10T12:59:56.330Z,27.82
2019-06-10T13:02:31.279Z,27.82
2019-06-10T13:04:57.557Z,28.01
2019-06-10T13:07:27.172Z,28.25
2019-06-10T13:09:57.770Z,28.25
2019-06-10T13:12:26.992Z,28.36
2019-06-10T13:14:56.339Z,28.54
2019-06-10T13:17:25.446Z,28.66
2019-06-10T13:19:54.945Z,28.63
2019-06-10T13:22:24.599Z,28.51
2019-06-10T13:24:53.814Z,28.55
2019-06-10T13:27:22.934Z,28.64
2019-06-10T13:29:53.196Z,28.65
2019-06-10T13:32:22.532Z,28.60
2019-06-10T13:34:52.747Z,28.54
2019-06-10T13:37:22.816Z,28.47
2019-06-10T13:39:52.486Z,28.42
2019-06-10T13:42:22.775Z,28.27
2019-06-10T13:44:53.017Z,28.16
2019-06-10T13:47:25.971Z,28.03
2019-06-10T13:49:53.319Z,27.88
2019-06-10T13:52:23.349Z,27.86
2019-06-10T13:54:52.767Z,27.86
2019-06-10T13:57:23.020Z,27.85
2019-06-10T13:59:52.338Z,27.82
2019-06-10T14:02:24.641Z,27.76
2019-06-10T14:04:53.169Z,27.74
2019-06-10T14:07:23.459Z,27.76
2019-06-10T14:09:52.564Z,27.73
2019-06-10T14:12:23.113Z,27.71
2019-06-10T14:14:53.330Z,27.72
2019-06-10T14:17:22.921Z,27.77
2019-06-10T14:19:52.166Z,27.89
2019-06-10T14:22:22.861Z,27.88
2019-06-10T14:24:53.045Z,27.83
2019-06-10T14:27:24.588Z,27.66
2019-06-10T14:29:53.811Z,27.64
2019-06-10T14:32:22.933Z,27.70
2019-06-10T14:34:52.671Z,27.72
2019-06-10T14:37:34.937Z,27.68
2019-06-10T14:39:53.038Z,27.58
2019-06-10T14:42:23.048Z,27.46
2019-06-10T14:44:52.711Z,27.39
2019-06-10T14:47:23.054Z,27.39
2019-06-10T14:49:53.009Z,27.32
2019-06-10T14:52:22.794Z,27.26
2019-06-10T14:54:53.177Z,27.21
2019-06-10T14:57:22.966Z,27.19
2019-06-10T14:59:53.192Z,26.99
2019-06-10T15:02:22.655Z,26.88
2019-06-10T15:04:53.142Z,26.92
2019-06-10T15:07:23.679Z,26.90
2019-06-10T15:09:53.201Z,26.83
2019-06-10T15:12:22.838Z,26.85
2019-06-10T15:14:52.248Z,26.78
2019-06-10T15:17:21.358Z,26.74
2019-06-10T15:19:52.904Z,26.70
2019-06-10T15:22:23.632Z,26.67
2019-06-10T15:24:53.260Z,26.73
2019-06-10T15:27:29.798Z,26.65
2019-06-10T15:29:53.342Z,26.72
2019-06-10T15:32:33.750Z,26.76
2019-06-10T15:34:53.307Z,26.76
2019-06-10T15:37:24.104Z,26.65
2019-06-10T15:39:53.601Z,26.52
2019-06-10T15:42:22.759Z,26.52
2019-06-10T15:44:53.481Z,26.53
2019-06-10T15:47:26.474Z,26.52
2019-06-10T15:49:53.720Z,26.62
2019-06-10T15:52:25.117Z,26.68
2019-06-10T15:54:53.783Z,26.74
2019-06-10T15:57:38.539Z,26.66
2019-06-10T15:59:54.668Z,26.66
2019-06-10T16:02:25.622Z,26.55
2019-06-10T16:04:54.784Z,26.55
2019-06-10T16:07:25.630Z,26.50
2019-06-10T16:09:54.977Z,26.49
2019-06-10T16:12:26.652Z,26.45
2019-06-10T16:14:55.140Z,26.45
2019-06-10T16:17:24.271Z,26.53
2019-06-10T16:19:53.520Z,26.66
2019-06-10T16:22:24.939Z,26.61
2019-06-10T16:24:53.506Z,26.66
2019-06-10T16:27:40.354Z,26.66
2019-06-10T16:29:53.505Z,26.66
2019-06-10T16:32:23.637Z,26.62
2019-06-10T16:34:53.570Z,26.55
2019-06-10T16:37:25.775Z,26.52
2019-06-10T16:39:55.456Z,26.45
2019-06-10T16:42:26.190Z,26.44
2019-06-10T16:44:55.446Z,26.38
2019-06-10T16:47:27.107Z,26.32
2019-06-10T16:49:55.494Z,26.20
2019-06-10T16:52:26.090Z,26.20
2019-06-10T16:54:58.870Z,26.16
2019-06-10T16:57:28.073Z,26.08
2019-06-10T16:59:57.217Z,26.08
2019-06-10T17:02:26.888Z,26.08
2019-06-10T17:04:58.363Z,26.02
2019-06-10T17:07:27.055Z,25.97
2019-06-10T17:09:56.195Z,25.94
2019-06-10T17:12:27.473Z,25.89
2019-06-10T17:14:56.188Z,25.80
2019-06-10T17:17:26.973Z,25.76
2019-06-10T17:19:56.206Z,25.76
2019-06-10T17:22:27.392Z,25.77
2019-06-10T17:24:56.209Z,25.71
2019-06-10T17:27:26.694Z,25.61
2019-06-10T17:29:59.344Z,25.60
2019-06-10T17:32:28.514Z,25.47
2019-06-10T17:34:57.621Z,25.35
2019-06-10T17:37:26.923Z,25.26
2019-06-10T17:39:56.040Z,25.21
2019-06-10T17:42:30.615Z,25.15
2019-06-10T17:44:56.040Z,25.13
2019-06-10T17:47:27.700Z,25.01
2019-06-10T17:49:56.138Z,24.97
2019-06-10T17:52:25.968Z,24.93
2019-06-10T17:54:55.218Z,24.90
2019-06-10T17:57:26.552Z,24.89
2019-06-10T17:59:55.216Z,24.76
2019-06-10T18:02:25.847Z,24.55
2019-06-10T18:04:55.308Z,24.52
2019-06-10T18:07:25.659Z,24.37
2019-06-10T18:09:54.770Z,24.27
2019-06-10T18:12:23.897Z,24.13
2019-06-10T18:14:53.059Z,23.98
2019-06-10T18:17:23.808Z,23.94
2019-06-10T18:20:13.591Z,23.76
2019-06-10T18:22:42.897Z,23.60
2019-06-10T18:25:12.432Z,23.57
2019-06-10T18:27:41.525Z,23.49
2019-06-10T18:30:14.163Z,23.50
2019-06-10T18:32:42.974Z,23.53
2019-06-10T18:35:14.349Z,23.48
2019-06-10T18:37:43.561Z,23.49
2019-06-10T18:40:14.602Z,23.53
2019-06-10T18:42:46.106Z,23.54
2019-06-10T18:45:17.422Z,23.55
2019-06-10T18:47:46.591Z,23.56
2019-06-10T18:50:16.345Z,23.58
2019-06-10T18:52:45.564Z,23.52
2019-06-10T18:55:19.055Z,23.45
2019-06-10T18:57:53.059Z,23.42
2019-06-10T19:00:23.117Z,23.37
2019-06-10T19:03:09.422Z,23.31
2019-06-10T19:05:28.640Z,23.25
2019-06-10T19:07:58.858Z,23.24
2019-06-10T19:10:29.069Z,23.25
2019-06-10T19:12:58.500Z,23.23
2019-06-10T19:15:29.512Z,23.24
2019-06-10T19:17:58.907Z,23.23
2019-06-10T19:20:28.207Z,23.21
2019-06-10T19:22:57.341Z,23.21
2019-06-10T19:25:30.903Z,23.18
2019-06-10T19:28:00.539Z,23.11
2019-06-10T19:30:33.496Z,23.06
2019-06-10T19:33:02.531Z,23.00
2019-06-10T19:35:34.789Z,21.24
2019-06-10T19:38:02.972Z,22.91
2019-06-10T19:40:34.984Z,22.88
2019-06-10T19:43:05.737Z,22.86
2019-06-10T19:45:34.925Z,22.83
2019-06-10T19:48:04.063Z,22.02
2019-06-10T19:50:34.869Z,22.82
2019-06-10T19:53:04.248Z,22.82
2019-06-10T19:55:35.195Z,22.76
2019-06-10T19:58:04.420Z,22.68
2019-06-10T20:00:35.937Z,22.59
2019-06-10T20:03:05.289Z,22.55
2019-06-10T20:05:36.131Z,22.54
2019-06-10T20:08:07.400Z,22.53
2019-06-10T20:10:36.627Z,22.52
2019-06-10T20:13:05.866Z,22.51
2019-06-10T20:15:37.456Z,22.52
2019-06-10T20:18:06.550Z,22.44
2019-06-10T20:20:36.120Z,22.40
2019-06-10T20:23:08.547Z,22.34
2019-06-10T20:25:36.354Z,22.30
2019-06-10T20:28:06.971Z,22.30
2019-06-10T20:30:37.279Z,22.33
2019-06-10T20:33:07.324Z,22.33
2019-06-10T20:35:37.469Z,22.36
2019-06-10T20:38:06.823Z,22.37
2019-06-10T20:40:36.013Z,22.38
2019-06-10T20:43:05.190Z,22.36
2019-06-10T20:45:34.441Z,22.36
2019-06-10T20:48:03.610Z,22.32
2019-06-10T20:50:32.810Z,22.24
2019-06-10T20:53:11.932Z,22.14
2019-06-10T20:55:42.435Z,22.04
2019-06-10T20:58:07.086Z,21.94
2019-06-10T21:00:37.011Z,21.86
2019-06-10T21:03:06.394Z,21.81
2019-06-10T21:05:36.056Z,21.78
2019-06-10T21:08:05.749Z,21.76
2019-06-10T21:10:36.554Z,21.72
2019-06-10T21:13:07.018Z,21.68
2019-06-10T21:15:36.293Z,21.64
2019-06-10T21:18:05.512Z,21.62
2019-06-10T21:20:34.674Z,21.62
2019-06-10T21:23:03.918Z,21.56
2019-06-10T21:25:33.072Z,21.52
2019-06-10T21:28:03.070Z,21.48
2019-06-10T21:30:41.352Z,21.43
2019-06-10T21:33:03.930Z,21.37
2019-06-10T21:35:34.112Z,21.34
2019-06-10T21:38:03.528Z,21.28
2019-06-10T21:40:33.163Z,21.24
2019-06-10T21:43:03.077Z,21.22
2019-06-10T21:45:32.888Z,21.21
2019-06-10T21:48:02.626Z,21.19
2019-06-10T21:50:33.469Z,21.14
2019-06-10T21:53:03.241Z,21.10
2019-06-10T21:55:33.161Z,21.07
2019-06-10T21:58:03.832Z,21.06
2019-06-10T22:01:03.199Z,21.05
2019-06-10T22:03:23.162Z,21.01
2019-06-10T22:05:51.644Z,20.96
2019-06-10T22:08:20.851Z,20.93
2019-06-10T22:10:50.114Z,20.88
2019-06-10T22:13:19.211Z,20.81
2019-06-10T22:15:48.439Z,20.78
2019-06-10T22:18:17.534Z,20.75
2019-06-10T22:20:46.851Z,20.68
2019-06-10T22:23:16.050Z,20.60
2019-06-10T22:25:45.174Z,20.56
2019-06-10T22:28:14.674Z,20.52
2019-06-10T22:30:45.088Z,20.47
2019-06-10T22:33:14.197Z,20.39
2019-06-10T22:35:43.301Z,20.33
2019-06-10T22:38:13.096Z,20.25
2019-06-10T22:40:42.844Z,20.22
2019-06-10T22:43:13.027Z,20.18
2019-06-10T22:45:42.652Z,20.16
2019-06-10T22:48:12.222Z,20.15
2019-06-10T22:50:43.673Z,20.13
2019-06-10T22:53:12.711Z,20.11
2019-06-10T22:55:43.322Z,20.11
2019-06-10T22:58:14.459Z,20.08
2019-06-10T23:00:43.823Z,20.06
2019-06-10T23:03:13.232Z,20.01
2019-06-10T23:05:43.422Z,19.97
2019-06-10T23:08:12.881Z,19.94
2019-06-10T23:10:42.967Z,19.90
2019-06-10T23:13:13.316Z,19.83
2019-06-10T23:15:43.169Z,19.78
2019-06-10T23:18:12.857Z,19.73
2019-06-10T23:20:42.917Z,19.71
2019-06-10T23:23:12.845Z,19.69
2019-06-10T23:25:42.993Z,19.66
2019-06-10T23:28:13.094Z,19.59
2019-06-10T23:30:43.009Z,19.55
2019-06-10T23:33:12.718Z,19.49
2019-06-10T23:35:42.921Z,19.45
2019-06-10T23:38:13.334Z,19.42
2019-06-10T23:40:43.151Z,19.42
2019-06-10T23:43:13.175Z,19.42
2019-06-10T23:45:42.595Z,19.40
2019-06-10T23:48:13.352Z,19.38
2019-06-10T23:50:43.715Z,19.32
2019-06-10T23:53:13.343Z,19.28
2019-06-10T23:55:42.935Z,19.26
2019-06-10T23:58:13.039Z,19.23
